Terminal Aerodrome Forecast
Issued by NWS

Current Version | Previous Version | Text Only | Print | Product List | Glossary On
Versions: 1 2 3 4 5 6 7 8 9 10 11 12 13 14 15 16 17 18 19
000
FTUS41 KPHI 021600 AAB
TAFMIV
TAF AMD
KMIV 021618Z 0216/0312 02007KT P6SM SCT018 BKN030
      TEMPO 0216/0218 BKN018
     FM021800 03008KT P6SM BKN040
     FM022200 05005KT P6SM SCT045
     FM031000 VRB03KT 5SM BR SCT005 SCT015=

USA.gov is the U.S. government's official web portal to all federal, state and local government web resources and services.